createdAt,value
2022-09-12T00:03:32.082Z,68.38
2022-09-12T00:07:54.176Z,62.15
2022-09-12T00:12:16.017Z,63.40
2022-09-12T00:16:38.301Z,58.53
2022-09-12T00:21:04.825Z,63.42
2022-09-12T00:25:26.658Z,58.50
2022-09-12T00:29:48.238Z,70.93
2022-09-12T00:34:10.968Z,66.38
2022-09-12T00:38:32.713Z,61.17
2022-09-12T00:42:54.707Z,59.00
2022-09-12T00:47:28.015Z,54.85
2022-09-12T00:51:59.854Z,54.63
2022-09-12T00:56:22.571Z,51.97
2022-09-12T01:00:44.531Z,55.15
2022-09-12T01:05:08.252Z,50.85
2022-09-12T01:09:29.906Z,53.67
2022-09-12T01:13:52.136Z,47.15
2022-09-12T01:18:42.038Z,47.10
2022-09-12T01:23:41.027Z,47.80
2022-09-12T01:28:30.618Z,54.60
2022-09-12T01:33:01.387Z,43.80
2022-09-12T01:37:38.886Z,49.28
2022-09-12T01:42:35.099Z,49.95
2022-09-12T01:47:09.460Z,52.25
2022-09-12T01:51:53.358Z,54.00
2022-09-12T01:56:31.124Z,52.33
2022-09-12T02:01:12.917Z,52.97
2022-09-12T02:05:45.068Z,58.03
2022-09-12T02:10:14.733Z,53.08
2022-09-12T02:14:48.421Z,60.28
2022-09-12T02:19:16.467Z,58.75
2022-09-12T02:23:45.229Z,60.03
2022-09-12T02:28:21.791Z,59.55
2022-09-12T02:33:08.346Z,66.55
2022-09-12T02:37:58.223Z,61.05
2022-09-12T02:42:20.240Z,67.28
2022-09-12T02:46:48.063Z,70.40
2022-09-12T02:51:11.878Z,71.43
2022-09-12T02:55:36.389Z,69.38
2022-09-12T03:00:01.282Z,69.25
2022-09-12T03:05:03.382Z,66.35
2022-09-12T03:09:51.489Z,68.80
2022-09-12T03:14:38.826Z,72.50
2022-09-12T03:19:52.317Z,72.93
2022-09-12T03:25:11.538Z,83.28
2022-09-12T03:29:33.835Z,68.35
2022-09-12T03:33:55.559Z,65.38
2022-09-12T03:38:18.186Z,67.05
2022-09-12T03:42:40.098Z,64.57
2022-09-12T03:47:02.033Z,59.67
2022-09-12T03:51:24.136Z,62.75
2022-09-12T03:55:46.044Z,55.40
2022-09-12T04:00:09.107Z,58.05
2022-09-12T04:04:38.129Z,54.05
2022-09-12T04:09:00.853Z,58.58
2022-09-12T04:13:22.354Z,57.88
2022-09-12T04:17:44.205Z,50.95
2022-09-12T04:22:06.478Z,57.92
2022-09-12T04:26:29.892Z,57.38
2022-09-12T04:30:52.294Z,56.42
2022-09-12T04:35:14.169Z,61.65
2022-09-12T04:39:36.192Z,61.42
2022-09-12T04:44:02.516Z,53.92
2022-09-12T04:48:24.504Z,54.35
2022-09-12T04:52:54.577Z,56.38
2022-09-12T04:57:16.591Z,59.00
2022-09-12T05:01:38.410Z,65.88
2022-09-12T05:06:03.707Z,77.35
2022-09-12T05:10:25.282Z,68.95
2022-09-12T05:14:47.641Z,73.45
2022-09-12T05:19:12.492Z,73.38
2022-09-12T05:23:34.340Z,81.10
2022-09-12T05:27:56.845Z,75.20
2022-09-12T05:32:18.646Z,83.10
2022-09-12T05:36:40.314Z,83.18
2022-09-12T05:41:08.497Z,77.13
2022-09-12T05:45:30.751Z,66.88
2022-09-12T05:49:53.034Z,68.82
2022-09-12T05:54:20.447Z,63.95
2022-09-12T05:58:46.298Z,63.03
2022-09-12T06:03:08.439Z,53.03
2022-09-12T06:07:31.254Z,47.22
2022-09-12T06:11:53.134Z,39.13
2022-09-12T06:16:18.060Z,35.85
2022-09-12T06:20:39.942Z,37.40
2022-09-12T06:25:01.837Z,33.33
2022-09-12T06:29:24.140Z,32.38
2022-09-12T06:33:51.962Z,30.00
2022-09-12T06:38:13.597Z,27.52
2022-09-12T06:42:35.496Z,33.17
2022-09-12T06:46:58.792Z,32.15
2022-09-12T06:51:21.012Z,30.40
2022-09-12T06:55:42.916Z,25.67
2022-09-12T07:00:05.949Z,25.92
2022-09-12T07:04:28.180Z,22.98
2022-09-12T07:08:50.204Z,19.45
2022-09-12T07:13:11.839Z,20.20
2022-09-12T07:17:33.826Z,20.08
2022-09-12T07:21:58.688Z,18.85
2022-09-12T07:26:20.419Z,16.00
2022-09-12T07:30:42.203Z,16.02
2022-09-12T07:35:04.473Z,14.60
2022-09-12T07:39:26.183Z,15.95
2022-09-12T07:43:51.163Z,20.85
2022-09-12T07:48:12.897Z,17.33
2022-09-12T07:52:35.137Z,18.77
2022-09-12T07:56:56.874Z,16.55
2022-09-12T08:01:23.373Z,17.27
2022-09-12T08:05:45.264Z,16.90
2022-09-12T08:10:07.511Z,16.13
2022-09-12T08:14:29.875Z,14.70
2022-09-12T08:18:52.430Z,18.25
2022-09-12T08:23:14.017Z,18.90
2022-09-12T08:27:36.349Z,20.88
2022-09-12T08:31:58.351Z,19.67
2022-09-12T08:36:24.398Z,19.15
2022-09-12T08:41:05.283Z,17.48
2022-09-12T08:45:51.981Z,18.13
2022-09-12T08:50:22.534Z,17.77
2022-09-12T08:54:48.265Z,15.95
2022-09-12T08:59:10.639Z,10.00
2022-09-12T09:04:32.507Z,12.45
2022-09-12T09:09:22.051Z,8.68
2022-09-12T09:14:49.258Z,15.02
2022-09-12T09:19:50.796Z,15.35
2022-09-12T09:24:19.061Z,12.35
2022-09-12T09:29:02.833Z,14.93
2022-09-12T09:33:32.573Z,12.35
2022-09-12T09:38:24.580Z,7.88
2022-09-12T09:43:02.018Z,5.68
2022-09-12T09:47:24.152Z,3.97
2022-09-12T09:51:46.971Z,4.00
2022-09-12T09:56:37.121Z,2.47
2022-09-12T10:01:12.283Z,4.30
2022-09-12T10:05:46.095Z,3.85
2022-09-12T10:10:18.764Z,4.60
2022-09-12T10:14:42.480Z,5.43
2022-09-12T10:19:04.763Z,8.93
2022-09-12T10:23:37.229Z,6.35
2022-09-12T10:28:00.883Z,5.95
2022-09-12T10:32:42.526Z,4.53
2022-09-12T10:37:09.418Z,8.38
2022-09-12T10:41:39.793Z,4.97
2022-09-12T10:46:19.801Z,4.72
2022-09-12T10:50:43.331Z,7.25
2022-09-12T10:55:13.937Z,2.83
2022-09-12T11:00:18.162Z,3.10
2022-09-12T11:04:55.497Z,4.22
2022-09-12T11:10:03.016Z,5.78
2022-09-12T11:15:03.198Z,5.65
2022-09-12T11:19:47.344Z,5.30
2022-09-12T11:24:30.658Z,9.75
2022-09-12T11:29:26.986Z,5.35
2022-09-12T11:33:56.703Z,4.75
2022-09-12T11:39:17.384Z,6.28
2022-09-12T11:43:48.379Z,6.65
2022-09-12T11:48:37.543Z,4.78
2022-09-12T11:53:28.286Z,6.85
2022-09-12T11:57:55.351Z,5.88
2022-09-12T12:02:32.736Z,8.75
2022-09-12T12:07:16.132Z,5.85
2022-09-12T12:11:48.970Z,7.97
2022-09-12T12:16:50.289Z,5.95
2022-09-12T12:21:21.722Z,6.20
2022-09-12T12:26:00.018Z,3.35
2022-09-12T12:30:31.420Z,6.53
2022-09-12T12:35:02.645Z,5.95
2022-09-12T12:39:33.733Z,4.30
2022-09-12T12:43:57.655Z,5.10
2022-09-12T12:48:20.527Z,5.20
2022-09-12T12:53:03.669Z,6.05
2022-09-12T12:57:48.902Z,4.88
2022-09-12T13:02:22.983Z,6.30
2022-09-12T13:06:56.168Z,8.15
2022-09-12T13:11:36.919Z,6.07
2022-09-12T13:15:58.949Z,5.97
2022-09-12T13:20:29.491Z,7.82
2022-09-12T13:24:54.785Z,10.65
2022-09-12T13:29:18.784Z,7.25
2022-09-12T13:33:47.594Z,8.43
2022-09-12T13:38:43.264Z,5.55
2022-09-12T13:43:29.411Z,9.10
2022-09-12T13:48:00.124Z,6.38
2022-09-12T13:52:40.253Z,4.07
2022-09-12T13:57:01.956Z,4.85
2022-09-12T14:01:44.847Z,4.57
2022-09-12T14:06:08.544Z,7.20
2022-09-12T14:10:35.770Z,3.70
2022-09-12T14:14:58.128Z,5.18
2022-09-12T14:19:23.478Z,5.18
2022-09-12T14:23:48.161Z,4.63
2022-09-12T14:28:13.768Z,10.43
2022-09-12T14:32:35.987Z,6.82
2022-09-12T14:36:58.821Z,5.03
2022-09-12T14:41:30.964Z,3.92
2022-09-12T14:45:59.914Z,5.82
2022-09-12T14:50:32.016Z,7.13
2022-09-12T14:55:16.597Z,4.38
2022-09-12T14:59:40.828Z,5.75
2022-09-12T15:04:02.927Z,4.65
2022-09-12T15:08:25.851Z,6.45
2022-09-12T15:12:48.064Z,6.70
2022-09-12T15:17:09.579Z,6.72
2022-09-12T15:21:31.507Z,5.55
2022-09-12T15:25:53.856Z,6.90
2022-09-12T15:30:15.659Z,6.43
2022-09-12T15:34:37.779Z,4.82
2022-09-12T15:38:59.748Z,4.60
2022-09-12T15:43:26.353Z,7.18
2022-09-12T15:47:48.319Z,4.43
2022-09-12T15:52:15.877Z,8.40
2022-09-12T15:56:38.348Z,6.65
2022-09-12T16:01:02.328Z,6.65
2022-09-12T16:05:26.688Z,6.45
2022-09-12T16:09:48.681Z,4.97
2022-09-12T16:14:17.188Z,8.07
2022-09-12T16:18:42.178Z,4.70
2022-09-12T16:23:04.070Z,4.97
2022-09-12T16:27:25.764Z,5.60
2022-09-12T16:31:47.806Z,6.03
2022-09-12T16:36:14.667Z,7.43
2022-09-12T16:40:37.437Z,7.03
2022-09-12T16:44:59.460Z,5.60
2022-09-12T16:49:21.892Z,7.07
2022-09-12T16:53:44.491Z,4.60
2022-09-12T16:58:06.455Z,6.10
2022-09-12T17:02:28.304Z,5.88
2022-09-12T17:06:50.291Z,5.82
2022-09-12T17:11:16.492Z,8.05
2022-09-12T17:15:38.703Z,5.95
2022-09-12T17:20:00.579Z,7.07
2022-09-12T17:24:23.287Z,5.30
2022-09-12T17:28:45.623Z,9.73
2022-09-12T17:33:07.789Z,8.82
2022-09-12T17:37:29.423Z,8.00
2022-09-12T17:41:52.009Z,6.82
2022-09-12T17:46:14.841Z,7.95
2022-09-12T17:50:39.564Z,7.43
2022-09-12T17:55:01.603Z,4.97
2022-09-12T17:59:24.881Z,7.15
2022-09-12T18:03:47.295Z,8.60
2022-09-12T18:08:08.915Z,4.35
2022-09-12T18:12:31.090Z,8.98
2022-09-12T18:16:53.010Z,6.88
2022-09-12T18:21:15.056Z,5.70
2022-09-12T18:25:36.545Z,6.82
2022-09-12T18:30:19.598Z,8.70
2022-09-12T18:34:40.398Z,4.72
2022-09-12T18:39:02.429Z,6.15
2022-09-12T18:43:24.276Z,8.98
2022-09-12T18:47:46.272Z,8.65
2022-09-12T18:52:08.294Z,9.48
2022-09-12T18:56:35.222Z,11.27
2022-09-12T19:00:58.591Z,8.63
2022-09-12T19:05:20.537Z,7.28
2022-09-12T19:09:42.724Z,9.60
2022-09-12T19:14:04.611Z,11.30
2022-09-12T19:18:26.585Z,9.65
2022-09-12T19:22:48.732Z,11.13
2022-09-12T19:27:13.041Z,9.43
2022-09-12T19:31:34.944Z,8.80
2022-09-12T19:36:00.292Z,10.25
2022-09-12T19:40:22.186Z,11.35
2022-09-12T19:44:43.990Z,9.20
2022-09-12T19:49:06.093Z,14.10
2022-09-12T19:53:28.631Z,11.63
2022-09-12T19:57:50.549Z,15.45
2022-09-12T20:02:12.539Z,12.48
2022-09-12T20:06:35.043Z,10.38
2022-09-12T20:10:57.380Z,12.55
2022-09-12T20:15:19.779Z,12.85
2022-09-12T20:19:42.009Z,12.57
2022-09-12T20:24:12.843Z,11.43
2022-09-12T20:28:37.278Z,12.35
2022-09-12T20:32:59.762Z,12.40
2022-09-12T20:37:22.389Z,11.10
2022-09-12T20:41:45.402Z,11.43
2022-09-12T20:46:12.164Z,12.18
2022-09-12T20:50:34.422Z,11.60
2022-09-12T20:54:56.468Z,10.98
2022-09-12T20:59:18.807Z,13.10
2022-09-12T21:03:42.679Z,12.13
2022-09-12T21:09:01.299Z,14.65
2022-09-12T21:13:23.779Z,9.90
2022-09-12T21:17:45.840Z,11.32
2022-09-12T21:22:08.080Z,13.25
2022-09-12T21:26:30.499Z,13.60
2022-09-12T21:30:52.837Z,15.02
2022-09-12T21:35:15.162Z,15.60
2022-09-12T21:39:37.299Z,15.68
2022-09-12T21:43:59.760Z,18.48
2022-09-12T21:48:22.639Z,16.63
2022-09-12T21:52:45.439Z,18.75
2022-09-12T21:57:07.720Z,18.38
2022-09-12T22:01:30.198Z,16.60
2022-09-12T22:06:00.420Z,16.85
2022-09-12T22:10:24.121Z,19.67
2022-09-12T22:14:49.282Z,18.65
2022-09-12T22:19:13.030Z,13.20
2022-09-12T22:23:54.016Z,15.07
2022-09-12T22:28:16.486Z,13.98
2022-09-12T22:32:38.585Z,15.07
2022-09-12T22:37:01.547Z,14.25
2022-09-12T22:41:24.546Z,13.63
2022-09-12T22:45:46.905Z,14.05
2022-09-12T22:50:09.325Z,15.07
2022-09-12T22:54:31.845Z,15.57
2022-09-12T22:58:54.521Z,14.70
2022-09-12T23:03:20.997Z,17.45
2022-09-12T23:07:43.466Z,13.35
2022-09-12T23:12:05.885Z,12.52
2022-09-12T23:16:31.389Z,14.23
2022-09-12T23:21:07.887Z,13.02
2022-09-12T23:25:30.026Z,15.00
2022-09-12T23:29:52.646Z,13.13
2022-09-12T23:34:15.286Z,12.18
2022-09-12T23:38:37.445Z,13.85
2022-09-12T23:43:00.052Z,12.15
2022-09-12T23:47:22.285Z,13.75
2022-09-12T23:51:45.045Z,14.55
2022-09-12T23:56:07.785Z,11.57
